createdAt,value
2022-10-03T00:02:21.905Z,4.70
2022-10-03T00:05:04.048Z,3.10
2022-10-03T00:07:45.764Z,2.90
2022-10-03T00:10:51.289Z,5.90
2022-10-03T00:13:40.656Z,3.70
2022-10-03T00:16:16.517Z,3.70
2022-10-03T00:18:52.802Z,3.60
2022-10-03T00:21:25.879Z,4.00
2022-10-03T00:24:23.959Z,2.80
2022-10-03T00:27:13.099Z,3.00
2022-10-03T00:30:00.799Z,3.00
2022-10-03T00:32:49.520Z,3.40
2022-10-03T00:35:44.255Z,3.90
2022-10-03T00:38:39.407Z,2.20
2022-10-03T00:41:12.481Z,2.40
2022-10-03T00:44:33.914Z,2.70
2022-10-03T00:47:17.632Z,3.80
2022-10-03T00:49:59.154Z,4.70
2022-10-03T00:52:57.317Z,5.30
2022-10-03T00:55:41.748Z,3.30
2022-10-03T00:58:56.861Z,4.20
2022-10-03T01:01:44.825Z,2.10
2022-10-03T01:05:02.993Z,5.60
2022-10-03T01:07:42.226Z,2.60
2022-10-03T01:10:21.989Z,3.40
2022-10-03T01:13:21.722Z,4.00
2022-10-03T01:16:00.195Z,3.60
2022-10-03T01:19:26.516Z,3.10
2022-10-03T01:22:42.736Z,3.60
2022-10-03T01:25:40.988Z,5.40
2022-10-03T01:29:13.888Z,5.10
2022-10-03T01:31:57.698Z,4.30
2022-10-03T01:34:55.815Z,3.10
2022-10-03T01:37:30.619Z,5.00
2022-10-03T01:40:08.524Z,4.80
2022-10-03T01:42:57.673Z,4.10
2022-10-03T01:45:52.706Z,4.00
2022-10-03T01:48:53.174Z,3.20
2022-10-03T01:51:39.745Z,3.20
2022-10-03T01:54:16.652Z,4.60
2022-10-03T01:56:58.165Z,3.20
2022-10-03T01:59:42.744Z,5.10
2022-10-03T02:02:19.206Z,6.30
2022-10-03T02:05:22.753Z,2.70
2022-10-03T02:08:03.455Z,3.30
2022-10-03T02:11:08.747Z,3.70
2022-10-03T02:13:49.666Z,5.20
2022-10-03T02:16:43.086Z,6.20
2022-10-03T02:19:52.016Z,5.10
2022-10-03T02:22:40.726Z,3.80
2022-10-03T02:25:30.759Z,7.40
2022-10-03T02:28:09.974Z,5.20
2022-10-03T02:31:25.786Z,4.60
2022-10-03T02:34:20.832Z,5.00
2022-10-03T02:37:09.385Z,4.10
2022-10-03T02:40:00.893Z,4.60
2022-10-03T02:45:44.631Z,5.10
2022-10-03T02:48:32.225Z,9.60
2022-10-03T02:51:29.988Z,7.40
2022-10-03T02:54:26.472Z,6.90
2022-10-03T02:57:40.128Z,5.90
2022-10-03T03:00:14.075Z,4.50
2022-10-03T03:03:33.919Z,5.20
2022-10-03T03:07:04.720Z,4.10
2022-10-03T03:10:13.077Z,13.80
2022-10-03T03:13:21.972Z,9.30
2022-10-03T03:16:10.825Z,10.30
2022-10-03T03:19:30.349Z,7.80
2022-10-03T03:22:31.830Z,6.90
2022-10-03T03:28:19.727Z,7.70
2022-10-03T03:31:18.696Z,4.50
2022-10-03T03:34:01.429Z,10.80
2022-10-03T03:36:44.846Z,9.50
2022-10-03T03:39:20.994Z,12.00
2022-10-03T03:42:34.349Z,9.70
2022-10-03T03:45:18.805Z,7.50
2022-10-03T03:47:46.221Z,7.20
2022-10-03T03:50:47.385Z,14.60
2022-10-03T03:53:29.681Z,6.00
2022-10-03T03:56:22.089Z,17.10
2022-10-03T03:59:00.792Z,12.20
2022-10-03T04:02:06.070Z,11.80
2022-10-03T04:04:43.394Z,8.60
2022-10-03T04:07:42.311Z,7.50
2022-10-03T04:10:41.898Z,7.00
2022-10-03T04:13:24.184Z,15.80
2022-10-03T04:16:39.310Z,19.30
2022-10-03T04:19:34.389Z,10.50
2022-10-03T04:22:40.239Z,9.20
2022-10-03T04:25:54.323Z,7.00
2022-10-03T04:29:05.071Z,14.90
2022-10-03T04:32:08.771Z,11.50
2022-10-03T04:35:09.177Z,11.20
2022-10-03T04:37:48.330Z,12.90
2022-10-03T04:40:38.612Z,7.90
2022-10-03T04:43:16.861Z,7.40
2022-10-03T04:46:16.448Z,16.30
2022-10-03T04:49:16.742Z,17.90
2022-10-03T04:52:27.291Z,12.00
2022-10-03T04:55:22.885Z,23.00
2022-10-03T04:58:04.864Z,16.00
2022-10-03T05:00:48.227Z,12.30
2022-10-03T05:03:34.451Z,19.20
2022-10-03T05:06:48.077Z,23.50
2022-10-03T05:09:39.554Z,11.70
2022-10-03T05:13:01.920Z,22.70
2022-10-03T05:15:34.233Z,18.30
2022-10-03T05:18:45.218Z,17.30
2022-10-03T05:22:21.118Z,15.80
2022-10-03T05:25:14.803Z,14.10
2022-10-03T05:27:54.190Z,12.50
2022-10-03T05:31:08.060Z,15.70
2022-10-03T05:34:03.941Z,7.50
2022-10-03T05:36:43.784Z,6.10
2022-10-03T05:39:23.991Z,5.60
2022-10-03T05:42:22.094Z,2.50
2022-10-03T05:45:22.004Z,5.00
2022-10-03T05:47:59.491Z,4.20
2022-10-03T05:50:57.246Z,5.30
2022-10-03T05:53:33.682Z,4.20
2022-10-03T05:56:13.459Z,6.30
2022-10-03T05:59:15.850Z,3.50
2022-10-03T06:02:09.252Z,4.50
2022-10-03T06:05:08.566Z,8.20
2022-10-03T06:07:44.737Z,4.80
2022-10-03T06:10:27.689Z,4.20
2022-10-03T06:13:31.924Z,6.30
2022-10-03T06:16:01.220Z,4.40
2022-10-03T06:18:53.689Z,4.20
2022-10-03T06:21:44.996Z,4.50
2022-10-03T06:25:09.749Z,4.50
2022-10-03T06:27:58.672Z,8.20
2022-10-03T06:31:02.158Z,7.40
2022-10-03T06:34:15.573Z,6.80
2022-10-03T06:37:10.466Z,7.80
2022-10-03T06:40:14.894Z,4.90
2022-10-03T06:43:06.877Z,4.10
2022-10-03T06:45:49.564Z,4.80
2022-10-03T06:49:01.035Z,3.60
2022-10-03T06:51:56.554Z,5.20
2022-10-03T06:54:54.534Z,4.20
2022-10-03T06:57:58.178Z,4.70
2022-10-03T07:00:58.759Z,6.20
2022-10-03T07:04:18.057Z,6.80
2022-10-03T07:07:10.004Z,6.30
2022-10-03T07:10:12.021Z,3.90
2022-10-03T07:13:21.623Z,5.90
2022-10-03T07:16:28.217Z,7.90
2022-10-03T07:19:32.834Z,5.50
2022-10-03T07:22:21.101Z,6.60
2022-10-03T07:25:31.941Z,6.20
2022-10-03T07:28:53.539Z,5.50
2022-10-03T07:31:36.696Z,10.30
2022-10-03T07:34:41.229Z,3.80
2022-10-03T07:37:57.965Z,4.60
2022-10-03T07:41:22.531Z,6.10
2022-10-03T07:44:11.653Z,1.40
2022-10-03T07:46:59.735Z,4.00
2022-10-03T07:49:45.670Z,3.60
2022-10-03T07:52:37.610Z,3.10
2022-10-03T07:55:29.078Z,3.70
2022-10-03T07:58:29.706Z,4.50
2022-10-03T08:01:31.485Z,3.20
2022-10-03T08:04:44.513Z,4.70
2022-10-03T08:07:37.266Z,2.60
2022-10-03T08:10:27.877Z,4.70
2022-10-03T08:13:39.667Z,2.90
2022-10-03T08:16:34.580Z,3.40
2022-10-03T08:19:38.793Z,5.50
2022-10-03T08:22:31.680Z,5.40
2022-10-03T08:25:43.534Z,3.20
2022-10-03T08:28:33.937Z,4.10
2022-10-03T08:31:31.758Z,3.00
2022-10-03T08:34:41.707Z,4.70
2022-10-03T08:37:46.132Z,4.20
2022-10-03T08:40:35.256Z,6.10
2022-10-03T08:43:50.041Z,6.40
2022-10-03T08:46:38.794Z,3.90
2022-10-03T08:49:34.750Z,4.90
2022-10-03T08:52:23.557Z,6.40
2022-10-03T08:55:19.374Z,5.20
2022-10-03T08:58:14.677Z,5.00
2022-10-03T09:01:23.091Z,6.10
2022-10-03T09:04:32.962Z,9.10
2022-10-03T09:07:17.922Z,9.20
2022-10-03T09:10:20.126Z,6.80
2022-10-03T09:13:14.734Z,7.30
2022-10-03T09:15:59.030Z,4.00
2022-10-03T09:19:25.919Z,2.70
2022-10-03T09:22:27.563Z,4.80
2022-10-03T09:25:19.789Z,3.80
2022-10-03T09:28:12.617Z,3.80
2022-10-03T09:31:03.626Z,3.40
2022-10-03T09:33:50.162Z,3.30
2022-10-03T09:36:48.041Z,2.40
2022-10-03T09:39:49.002Z,2.50
2022-10-03T09:42:43.511Z,3.80
2022-10-03T09:45:53.180Z,6.30
2022-10-03T09:49:14.970Z,4.70
2022-10-03T09:52:13.175Z,5.40
2022-10-03T09:55:05.499Z,7.20
2022-10-03T09:58:06.341Z,9.00
2022-10-03T10:00:51.574Z,9.60
2022-10-03T10:03:43.016Z,7.20
2022-10-03T10:06:19.592Z,6.70
2022-10-03T10:09:16.529Z,5.50
2022-10-03T10:12:21.413Z,6.40
2022-10-03T10:15:16.981Z,7.70
2022-10-03T10:18:23.658Z,6.20
2022-10-03T10:21:26.538Z,11.20
2022-10-03T10:24:04.569Z,15.00
2022-10-03T10:26:56.056Z,7.20
2022-10-03T10:30:08.151Z,5.50
2022-10-03T10:32:54.387Z,19.20
2022-10-03T10:36:06.443Z,7.50
2022-10-03T10:39:17.876Z,20.10
2022-10-03T10:42:41.609Z,15.40
2022-10-03T10:45:30.633Z,5.90
2022-10-03T10:48:38.171Z,24.40
2022-10-03T10:51:47.855Z,6.80
2022-10-03T10:55:03.749Z,15.20
2022-10-03T10:58:17.586Z,12.60
2022-10-03T11:01:28.170Z,6.50
2022-10-03T11:04:30.761Z,7.50
2022-10-03T11:07:22.478Z,7.90
2022-10-03T11:10:15.884Z,10.70
2022-10-03T11:13:22.356Z,6.60
2022-10-03T11:16:25.494Z,6.60
2022-10-03T11:19:20.554Z,6.50
2022-10-03T11:22:21.825Z,5.00
2022-10-03T11:25:20.035Z,9.00
2022-10-03T11:28:30.522Z,7.80
2022-10-03T11:31:52.463Z,8.10
2022-10-03T11:34:57.923Z,7.40
2022-10-03T11:37:32.554Z,7.90
2022-10-03T11:40:19.063Z,7.00
2022-10-03T11:43:20.087Z,12.00
2022-10-03T11:45:56.397Z,8.70
2022-10-03T11:48:34.489Z,6.90
2022-10-03T11:51:39.859Z,7.20
2022-10-03T11:54:33.836Z,7.90
2022-10-03T11:57:29.886Z,11.70
2022-10-03T12:00:13.732Z,7.50
2022-10-03T12:03:13.620Z,9.10
2022-10-03T12:05:52.905Z,12.10
2022-10-03T12:08:51.750Z,8.00
2022-10-03T12:11:33.294Z,8.80
2022-10-03T12:14:11.583Z,11.20
2022-10-03T12:17:19.319Z,8.50
2022-10-03T12:20:10.660Z,13.60
2022-10-03T12:25:29.837Z,8.70
2022-10-03T12:28:27.796Z,8.90
2022-10-03T12:31:19.091Z,8.10
2022-10-03T12:34:34.110Z,7.90
2022-10-03T12:37:33.983Z,7.60
2022-10-03T12:40:23.822Z,10.20
2022-10-03T12:43:30.558Z,12.00
2022-10-03T12:46:03.870Z,7.10
2022-10-03T12:48:43.617Z,10.10
2022-10-03T12:51:38.761Z,12.80
2022-10-03T12:54:43.013Z,10.80
2022-10-03T12:57:35.780Z,14.30
2022-10-03T13:00:21.185Z,9.10
2022-10-03T13:03:04.510Z,9.70
2022-10-03T13:07:02.867Z,12.10
2022-10-03T13:09:58.430Z,9.50
2022-10-03T13:12:39.732Z,8.90
2022-10-03T13:18:35.086Z,11.80
2022-10-03T13:21:33.756Z,20.60
2022-10-03T13:24:31.692Z,11.30
2022-10-03T13:27:26.471Z,8.50
2022-10-03T13:30:06.542Z,8.80
2022-10-03T13:32:41.937Z,10.60
2022-10-03T13:35:58.301Z,6.80
2022-10-03T13:39:04.769Z,7.40
2022-10-03T13:42:08.027Z,5.10
2022-10-03T13:44:52.555Z,2.50
2022-10-03T13:47:44.897Z,3.50
2022-10-03T13:51:01.472Z,3.20
2022-10-03T13:53:59.537Z,5.20
2022-10-03T13:56:32.576Z,5.90
2022-10-03T13:59:35.681Z,2.70
2022-10-03T14:02:54.060Z,3.60
2022-10-03T14:05:55.903Z,5.50
2022-10-03T14:08:48.034Z,5.10
2022-10-03T14:11:40.649Z,4.60
2022-10-03T14:14:08.199Z,6.50
2022-10-03T14:16:45.455Z,6.10
2022-10-03T14:19:50.667Z,4.50
2022-10-03T14:22:32.573Z,6.40
2022-10-03T14:25:25.086Z,10.60
2022-10-03T14:27:59.980Z,4.10
2022-10-03T14:31:05.000Z,4.80
2022-10-03T14:34:07.364Z,3.70
2022-10-03T14:37:05.936Z,4.50
2022-10-03T14:40:05.348Z,6.50
2022-10-03T14:43:11.547Z,5.50
2022-10-03T14:45:59.633Z,9.10
2022-10-03T14:48:34.152Z,3.60
2022-10-03T14:51:20.836Z,4.70
2022-10-03T14:54:06.860Z,3.50
2022-10-03T14:56:44.142Z,4.40
2022-10-03T14:59:27.032Z,5.60
2022-10-03T15:02:00.453Z,7.20
2022-10-03T15:04:36.932Z,7.80
2022-10-03T15:07:05.627Z,6.00
2022-10-03T15:09:39.761Z,4.80
2022-10-03T15:12:26.608Z,5.30
2022-10-03T15:15:13.797Z,4.80
2022-10-03T15:17:50.781Z,6.60
2022-10-03T15:20:26.627Z,5.30
2022-10-03T15:22:57.696Z,7.40
2022-10-03T15:25:39.986Z,5.70
2022-10-03T15:28:13.090Z,5.60
2022-10-03T15:30:41.552Z,7.70
2022-10-03T15:33:32.048Z,9.90
2022-10-03T15:36:22.992Z,11.70
2022-10-03T15:39:05.187Z,13.00
2022-10-03T15:42:25.143Z,12.40
2022-10-03T15:45:18.422Z,19.00
2022-10-03T15:47:47.207Z,15.40
2022-10-03T15:50:22.003Z,15.90
2022-10-03T15:53:31.571Z,10.80
2022-10-03T15:56:19.333Z,28.80
2022-10-03T15:58:57.226Z,20.60
2022-10-03T16:01:34.846Z,16.00
2022-10-03T16:04:23.479Z,20.90
2022-10-03T16:07:09.518Z,16.00
2022-10-03T16:09:55.534Z,15.40
2022-10-03T16:12:44.008Z,12.40
2022-10-03T16:15:26.237Z,14.80
2022-10-03T16:18:29.833Z,13.40
2022-10-03T16:21:01.002Z,13.30
2022-10-03T16:23:34.663Z,12.90
2022-10-03T16:26:22.739Z,11.50
2022-10-03T16:29:14.867Z,13.60
2022-10-03T16:32:00.714Z,11.80
2022-10-03T16:34:30.621Z,19.80
2022-10-03T16:36:58.850Z,16.90
2022-10-03T16:39:35.034Z,15.10
2022-10-03T16:42:19.041Z,17.80
2022-10-03T16:44:46.331Z,14.40
2022-10-03T16:47:14.112Z,14.90
2022-10-03T16:50:17.639Z,14.70
2022-10-03T16:52:52.570Z,17.20
2022-10-03T16:55:36.646Z,18.50
2022-10-03T16:58:08.786Z,15.60
2022-10-03T17:01:04.225Z,19.30
2022-10-03T17:03:45.378Z,18.90
2022-10-03T17:06:35.053Z,28.00
2022-10-03T17:09:07.755Z,38.60
2022-10-03T17:11:37.917Z,37.80
2022-10-03T17:14:08.280Z,42.60
2022-10-03T17:16:39.733Z,43.10
2022-10-03T17:19:31.704Z,37.50
2022-10-03T17:22:15.169Z,28.90
2022-10-03T17:25:07.170Z,26.40
2022-10-03T17:27:41.470Z,24.40
2022-10-03T17:30:11.839Z,46.20
2022-10-03T17:32:42.802Z,47.00
2022-10-03T17:35:46.002Z,49.20
2022-10-03T17:38:55.131Z,61.10
2022-10-03T17:41:31.026Z,61.30
2022-10-03T17:45:10.090Z,60.60
2022-10-03T17:47:52.713Z,58.80
2022-10-03T17:50:56.092Z,55.00
2022-10-03T17:53:29.748Z,52.20
2022-10-03T17:56:09.958Z,45.90
2022-10-03T17:58:40.891Z,42.00
2022-10-03T18:01:10.511Z,34.60
2022-10-03T18:03:57.587Z,31.60
2022-10-03T18:06:48.745Z,33.80
2022-10-03T18:09:16.736Z,33.50
2022-10-03T18:11:45.636Z,37.20
2022-10-03T18:14:53.529Z,36.30
2022-10-03T18:17:56.141Z,34.30
2022-10-03T18:20:58.707Z,29.80
2022-10-03T18:24:02.544Z,29.60
2022-10-03T18:26:42.354Z,24.10
2022-10-03T18:29:26.190Z,25.90
2022-10-03T18:32:13.687Z,30.20
2022-10-03T18:35:14.797Z,24.00
2022-10-03T18:37:44.716Z,22.10
2022-10-03T18:41:01.749Z,25.10
2022-10-03T18:43:45.805Z,26.80
2022-10-03T18:46:15.771Z,28.90
2022-10-03T18:49:16.106Z,29.40
2022-10-03T18:51:45.390Z,34.10
2022-10-03T18:54:53.530Z,34.30
2022-10-03T18:57:32.417Z,35.00
2022-10-03T19:00:29.838Z,30.80
2022-10-03T19:03:13.132Z,32.00
2022-10-03T19:05:49.988Z,29.50
2022-10-03T19:08:17.271Z,26.50
2022-10-03T19:10:48.088Z,28.20
2022-10-03T19:13:40.077Z,27.50
2022-10-03T19:16:40.454Z,30.70
2022-10-03T19:19:47.012Z,27.90
2022-10-03T19:22:19.011Z,27.20
2022-10-03T19:24:58.361Z,30.30
2022-10-03T19:27:57.793Z,30.70
2022-10-03T19:30:28.124Z,34.50
2022-10-03T19:33:24.975Z,32.00
2022-10-03T19:35:55.716Z,34.20
2022-10-03T19:38:27.879Z,36.30
2022-10-03T19:41:07.329Z,37.90
2022-10-03T19:43:44.138Z,42.80
2022-10-03T19:46:46.498Z,31.40
2022-10-03T19:49:21.233Z,0.20
2022-10-03T19:51:48.815Z,0.20
2022-10-03T19:55:00.471Z,0.00
2022-10-03T20:00:20.230Z,0.10
2022-10-03T20:03:05.867Z,0.10
2022-10-03T20:05:50.318Z,0.10
2022-10-03T20:08:28.208Z,0.10
2022-10-03T20:11:17.195Z,0.70
2022-10-03T20:13:47.481Z,0.30
2022-10-03T20:16:21.586Z,0.00
2022-10-03T20:18:52.485Z,0.50
2022-10-03T20:21:29.326Z,0.00
2022-10-03T20:23:57.479Z,0.10
2022-10-03T20:26:44.303Z,0.30
2022-10-03T20:29:26.201Z,0.00
2022-10-03T20:32:00.446Z,0.10
2022-10-03T20:34:28.788Z,0.00
2022-10-03T20:37:38.195Z,0.00
2022-10-03T20:40:27.666Z,0.00
2022-10-03T20:43:41.317Z,0.20
2022-10-03T20:46:19.465Z,0.00
2022-10-03T20:49:21.156Z,0.10
2022-10-03T20:54:47.456Z,0.00
2022-10-03T20:57:31.383Z,0.00
2022-10-03T21:00:26.716Z,0.10
2022-10-03T21:03:13.144Z,0.40
2022-10-03T21:05:54.163Z,0.10
2022-10-03T21:08:29.984Z,0.20
2022-10-03T21:10:58.102Z,0.40
2022-10-03T21:13:55.493Z,1.20
2022-10-03T21:16:29.896Z,0.30
2022-10-03T21:19:03.796Z,0.40
2022-10-03T21:21:43.270Z,0.20
2022-10-03T21:24:16.381Z,0.00
2022-10-03T21:27:02.519Z,0.00
2022-10-03T21:29:34.888Z,0.00
2022-10-03T21:32:28.879Z,0.20
2022-10-03T21:35:21.821Z,0.00
2022-10-03T21:38:07.858Z,0.00
2022-10-03T21:41:07.448Z,0.00
2022-10-03T21:43:37.707Z,0.00
2022-10-03T21:46:20.555Z,0.00
2022-10-03T21:49:12.147Z,0.00
2022-10-03T21:51:51.644Z,0.00
2022-10-03T21:54:41.064Z,0.20
2022-10-03T21:57:37.398Z,0.10
2022-10-03T22:00:53.570Z,0.00
2022-10-03T22:03:31.910Z,0.00
2022-10-03T22:06:14.264Z,0.20
2022-10-03T22:08:44.489Z,0.10
2022-10-03T22:11:33.259Z,0.00
2022-10-03T22:14:28.431Z,0.10
2022-10-03T22:17:18.734Z,0.00
2022-10-03T22:19:50.201Z,0.10
2022-10-03T22:22:37.438Z,0.00
2022-10-03T22:25:23.345Z,0.30
2022-10-03T22:28:17.559Z,0.00
2022-10-03T22:31:25.857Z,0.40
2022-10-03T22:34:09.128Z,0.00
2022-10-03T22:36:37.414Z,0.30
2022-10-03T22:39:11.120Z,0.00
2022-10-03T22:41:40.638Z,0.20
2022-10-03T22:44:10.036Z,0.00
2022-10-03T22:46:40.954Z,0.00
2022-10-03T22:49:29.308Z,0.50
2022-10-03T22:51:57.902Z,0.10
2022-10-03T22:54:33.988Z,0.00
2022-10-03T22:57:11.941Z,0.10
2022-10-03T22:59:46.962Z,0.00
2022-10-03T23:02:15.248Z,0.00
2022-10-03T23:04:55.974Z,0.20
2022-10-03T23:07:32.141Z,0.00
2022-10-03T23:10:21.006Z,0.10
2022-10-03T23:13:20.267Z,0.10
2022-10-03T23:15:53.588Z,0.10
2022-10-03T23:18:59.166Z,0.00
2022-10-03T23:21:26.536Z,0.00
2022-10-03T23:24:08.116Z,0.00
2022-10-03T23:27:23.749Z,0.00
2022-10-03T23:30:16.603Z,0.00
2022-10-03T23:32:46.747Z,0.00
2022-10-03T23:35:42.803Z,0.00
2022-10-03T23:38:31.543Z,0.00
2022-10-03T23:41:43.754Z,0.00
2022-10-03T23:44:39.811Z,4.40
2022-10-03T23:47:11.060Z,0.00
2022-10-03T23:49:38.608Z,0.10
2022-10-03T23:52:14.660Z,0.10
2022-10-03T23:54:42.627Z,0.00
2022-10-03T23:57:09.875Z,0.30
2022-10-03T23:59:38.242Z,0.10
